createdAt,value
2022-08-24T00:01:57.378Z,97303.63
2022-08-24T00:04:25.585Z,97303.75
2022-08-24T00:06:53.838Z,97300.06
2022-08-24T00:09:23.400Z,97302.75
2022-08-24T00:11:51.520Z,97303.63
2022-08-24T00:14:19.718Z,97298.38
2022-08-24T00:16:48.609Z,97307.41
2022-08-24T00:19:16.997Z,97310.09
2022-08-24T00:21:45.127Z,97305.69
2022-08-24T00:24:13.265Z,97310.22
2022-08-24T00:26:42.824Z,97303.97
2022-08-24T00:29:10.934Z,97313.78
2022-08-24T00:31:39.128Z,97305.78
2022-08-24T00:34:07.290Z,97314.72
2022-08-24T00:36:35.544Z,97321.09
2022-08-24T00:39:05.180Z,97313.97
2022-08-24T00:41:33.407Z,97321.19
2022-08-24T00:44:04.706Z,97318.50
2022-08-24T00:46:45.149Z,97317.66
2022-08-24T00:49:16.918Z,97324.84
2022-08-24T00:51:48.511Z,97320.41
2022-08-24T00:54:17.840Z,97323.09
2022-08-24T00:56:48.537Z,97324.94
2022-08-24T00:59:19.901Z,97329.47
2022-08-24T01:01:48.162Z,97329.47
2022-08-24T01:04:21.500Z,97328.59
2022-08-24T01:06:50.211Z,97329.59
2022-08-24T01:09:18.502Z,97327.84
2022-08-24T01:11:47.594Z,97329.66
2022-08-24T01:14:15.954Z,97329.66
2022-08-24T01:17:03.155Z,97327.09
2022-08-24T01:19:35.215Z,97326.97
2022-08-24T01:22:12.072Z,97324.41
2022-08-24T01:24:41.761Z,97329.78
2022-08-24T01:27:10.418Z,97325.38
2022-08-24T01:29:40.555Z,97317.31
2022-08-24T01:32:09.263Z,97320.84
2022-08-24T01:34:37.444Z,97326.34
2022-08-24T01:37:06.222Z,97328.16
2022-08-24T01:39:36.426Z,97321.06
2022-08-24T01:42:06.402Z,97316.56
2022-08-24T01:44:36.759Z,97321.94
2022-08-24T01:47:07.279Z,97321.06
2022-08-24T01:49:38.162Z,97312.13
2022-08-24T01:52:07.489Z,97313.94
2022-08-24T01:54:35.916Z,97314.94
2022-08-24T01:57:06.278Z,97315.81
2022-08-24T01:59:34.893Z,97323.88
2022-08-24T02:02:05.234Z,97316.75
2022-08-24T02:04:34.601Z,97313.31
2022-08-24T02:07:02.781Z,97311.38
2022-08-24T02:09:32.825Z,97306.00
2022-08-24T02:12:02.391Z,97314.19
2022-08-24T02:14:37.000Z,97314.19
2022-08-24T02:17:05.606Z,97309.75
2022-08-24T02:19:34.066Z,97311.63
2022-08-24T02:22:02.296Z,97307.06
2022-08-24T02:24:30.565Z,97304.50
2022-08-24T02:26:58.890Z,97310.75
2022-08-24T02:29:27.453Z,97309.00
2022-08-24T02:31:57.722Z,97307.19
2022-08-24T02:34:25.908Z,97303.75
2022-08-24T02:36:54.808Z,97306.44
2022-08-24T02:39:23.298Z,97305.56
2022-08-24T02:41:52.802Z,97310.94
2022-08-24T02:44:21.230Z,97307.41
2022-08-24T02:46:49.449Z,97308.38
2022-08-24T02:49:23.077Z,97314.63
2022-08-24T02:51:52.154Z,97314.63
2022-08-24T02:54:22.650Z,97309.34
2022-08-24T02:56:53.078Z,97309.44
2022-08-24T02:59:21.826Z,97311.31
2022-08-24T03:01:50.845Z,97315.69
2022-08-24T03:04:21.873Z,97315.69
2022-08-24T03:06:50.054Z,97324.75
2022-08-24T03:09:18.725Z,97324.75
2022-08-24T03:11:47.040Z,97321.19
2022-08-24T03:14:18.626Z,97322.16
2022-08-24T03:16:47.026Z,97323.00
2022-08-24T03:19:15.752Z,97329.38
2022-08-24T03:21:47.213Z,97321.31
2022-08-24T03:24:15.534Z,97316.00
2022-08-24T03:26:44.619Z,97329.47
2022-08-24T03:29:14.242Z,97336.72
2022-08-24T03:31:44.885Z,97335.84
2022-08-24T03:34:13.566Z,97334.97
2022-08-24T03:36:46.481Z,97343.16
2022-08-24T03:39:17.552Z,97343.91
2022-08-24T03:41:47.190Z,97346.72
2022-08-24T03:44:15.457Z,97343.16
2022-08-24T03:46:45.366Z,97342.28
2022-08-24T03:49:14.444Z,97343.28
2022-08-24T03:51:43.684Z,97344.97
2022-08-24T03:54:12.276Z,97346.78
2022-08-24T03:56:42.484Z,97350.47
2022-08-24T03:59:11.027Z,97347.78
2022-08-24T04:01:43.387Z,97353.28
2022-08-24T04:04:12.156Z,97356.81
2022-08-24T04:06:44.343Z,97349.72
2022-08-24T04:09:13.278Z,97361.34
2022-08-24T04:11:45.621Z,97366.72
2022-08-24T04:14:26.787Z,97362.31
2022-08-24T04:17:07.858Z,97366.72
2022-08-24T04:19:57.834Z,97359.50
2022-08-24T04:22:30.464Z,97366.63
2022-08-24T04:24:58.775Z,97368.31
2022-08-24T04:27:30.449Z,97368.25
2022-08-24T04:29:58.717Z,97373.50
2022-08-24T04:32:29.326Z,97377.91
2022-08-24T04:34:59.262Z,97376.97
2022-08-24T04:37:29.422Z,97376.84
2022-08-24T04:39:58.462Z,97374.16
2022-08-24T04:42:37.447Z,97377.72
2022-08-24T04:45:06.105Z,97378.56
2022-08-24T04:47:34.335Z,97377.59
2022-08-24T04:50:02.562Z,97389.22
2022-08-24T04:52:31.190Z,97388.59
2022-08-24T04:55:00.168Z,97376.75
2022-08-24T04:57:28.422Z,97378.13
2022-08-24T05:00:00.176Z,97382.00
2022-08-24T05:02:28.563Z,97376.16
2022-08-24T05:04:58.296Z,97375.50
2022-08-24T05:07:26.899Z,97382.81
2022-08-24T05:09:56.128Z,97374.97
2022-08-24T05:12:27.413Z,97376.03
2022-08-24T05:15:02.781Z,97380.66
2022-08-24T05:17:35.806Z,97375.59
2022-08-24T05:20:04.763Z,97378.78
2022-08-24T05:22:32.877Z,97369.31
2022-08-24T05:25:01.182Z,97373.28
2022-08-24T05:27:29.794Z,97370.31
2022-08-24T05:29:58.123Z,97374.09
2022-08-24T05:32:27.862Z,97367.09
2022-08-24T05:34:56.385Z,97370.94
2022-08-24T05:37:25.234Z,97357.91
2022-08-24T05:40:10.575Z,97358.97
2022-08-24T05:42:41.213Z,97357.56
2022-08-24T05:45:10.759Z,97360.44
2022-08-24T05:47:40.658Z,97359.69
2022-08-24T05:50:22.689Z,97355.94
2022-08-24T05:52:50.950Z,97356.59
2022-08-24T05:55:20.741Z,97353.81
2022-08-24T05:57:50.476Z,97342.22
2022-08-24T06:00:23.453Z,97349.09
2022-08-24T06:02:54.238Z,97348.88
2022-08-24T06:05:23.451Z,97348.81
2022-08-24T06:07:51.900Z,97346.88
2022-08-24T06:10:36.421Z,97344.25
2022-08-24T06:13:06.395Z,97342.34
2022-08-24T06:15:35.102Z,97343.09
2022-08-24T06:18:05.403Z,97346.34
2022-08-24T06:20:33.875Z,97355.94
2022-08-24T06:23:02.314Z,97339.59
2022-08-24T06:25:57.302Z,97342.09
2022-08-24T06:28:25.954Z,97343.59
2022-08-24T06:31:02.787Z,97346.16
2022-08-24T06:33:32.465Z,97334.34
2022-08-24T06:36:00.962Z,97333.38
2022-08-24T06:38:30.745Z,97335.88
2022-08-24T06:40:59.710Z,97338.44
2022-08-24T06:43:28.209Z,97340.06
2022-08-24T06:46:01.037Z,97334.59
2022-08-24T06:48:33.755Z,97330.91
2022-08-24T06:51:01.928Z,97329.88
2022-08-24T06:53:30.142Z,97328.97
2022-08-24T06:55:59.838Z,97328.06
2022-08-24T06:58:29.851Z,97323.59
2022-08-24T07:00:58.599Z,97327.06
2022-08-24T07:03:27.858Z,97319.88
2022-08-24T07:06:05.178Z,97327.00
2022-08-24T07:08:37.863Z,97324.19
2022-08-24T07:11:06.574Z,97325.06
2022-08-24T07:13:34.719Z,97330.31
2022-08-24T07:16:03.049Z,97331.09
2022-08-24T07:18:33.869Z,97318.50
2022-08-24T07:21:05.631Z,97320.22
2022-08-24T07:23:42.817Z,97323.78
2022-08-24T07:26:21.506Z,97329.03
2022-08-24T07:28:52.360Z,97330.78
2022-08-24T07:31:21.480Z,97327.09
2022-08-24T07:33:57.770Z,97329.78
2022-08-24T07:36:28.513Z,97326.16
2022-08-24T07:38:57.719Z,97331.41
2022-08-24T07:41:46.588Z,97329.59
2022-08-24T07:44:17.878Z,97323.22
2022-08-24T07:46:46.884Z,97329.47
2022-08-24T07:49:31.437Z,97335.72
2022-08-24T07:52:07.038Z,97336.56
2022-08-24T07:54:36.147Z,97334.75
2022-08-24T07:57:06.704Z,97328.41
2022-08-24T07:59:35.493Z,97325.72
2022-08-24T08:02:03.681Z,97331.94
2022-08-24T08:04:32.157Z,97333.69
2022-08-24T08:07:02.116Z,97334.53
2022-08-24T08:09:34.594Z,97338.94
2022-08-24T08:12:02.849Z,97340.75
2022-08-24T08:14:31.897Z,97333.56
2022-08-24T08:17:00.145Z,97345.19
2022-08-24T08:19:29.062Z,97335.31
2022-08-24T08:22:15.121Z,97338.00
2022-08-24T08:25:05.504Z,97338.81
2022-08-24T08:27:33.732Z,97335.31
2022-08-24T08:30:02.012Z,97336.06
2022-08-24T08:32:31.406Z,97332.50
2022-08-24T08:35:02.138Z,97334.19
2022-08-24T08:37:32.295Z,97334.19
2022-08-24T08:40:00.879Z,97335.06
2022-08-24T08:42:44.741Z,97332.38
2022-08-24T08:45:29.510Z,97329.69
2022-08-24T08:48:32.093Z,97328.75
2022-08-24T08:51:36.869Z,97336.81
2022-08-24T08:54:16.281Z,97331.44
2022-08-24T08:56:53.215Z,97331.31
2022-08-24T08:59:36.953Z,97334.00
2022-08-24T09:02:18.976Z,97330.31
2022-08-24T09:05:03.907Z,97336.47
2022-08-24T09:07:42.150Z,97343.69
2022-08-24T09:10:36.978Z,97334.66
2022-08-24T09:13:15.037Z,97336.38
2022-08-24T09:16:10.411Z,97338.09
2022-08-24T09:18:50.696Z,97337.13
2022-08-24T09:21:49.836Z,97336.16
2022-08-24T09:24:40.883Z,97328.94
2022-08-24T09:27:34.603Z,97323.56
2022-08-24T09:30:09.285Z,97324.44
2022-08-24T09:32:49.793Z,97311.94
2022-08-24T09:35:26.262Z,97322.59
2022-08-24T09:38:00.376Z,97308.28
2022-08-24T09:40:36.110Z,97308.28
2022-08-24T09:43:32.272Z,97307.31
2022-08-24T09:46:28.221Z,97312.69
2022-08-24T09:49:24.615Z,97310.88
2022-08-24T09:52:19.685Z,97314.44
2022-08-24T09:55:44.754Z,97306.34
2022-08-24T09:58:18.619Z,97309.03
2022-08-24T10:00:47.983Z,97317.13
2022-08-24T10:03:36.299Z,97307.19
2022-08-24T10:06:19.405Z,97304.50
2022-08-24T10:08:56.722Z,97314.31
2022-08-24T10:11:28.409Z,97308.06
2022-08-24T10:14:01.461Z,97296.41
2022-08-24T10:16:40.011Z,97299.03
2022-08-24T10:19:30.312Z,97293.66
2022-08-24T10:22:03.369Z,97288.25
2022-08-24T10:24:46.566Z,97284.59
2022-08-24T10:27:23.105Z,97282.78
2022-08-24T10:30:05.817Z,97286.31
2022-08-24T10:32:44.977Z,97285.34
2022-08-24T10:35:15.224Z,97273.72
2022-08-24T10:38:14.373Z,97264.69
2022-08-24T10:40:45.284Z,97266.50
2022-08-24T10:43:37.908Z,97263.69
2022-08-24T10:46:36.298Z,97266.38
2022-08-24T10:49:43.061Z,97271.75
2022-08-24T10:52:58.577Z,97271.69
2022-08-24T10:55:29.958Z,97274.38
2022-08-24T10:58:19.282Z,97272.50
2022-08-24T11:00:47.883Z,97272.50
2022-08-24T11:03:19.900Z,97267.03
2022-08-24T11:05:56.429Z,97264.34
2022-08-24T11:08:25.660Z,97261.66
2022-08-24T11:11:09.978Z,97268.75
2022-08-24T11:13:39.534Z,97261.56
2022-08-24T11:16:07.950Z,97256.16
2022-08-24T11:18:48.630Z,97256.91
2022-08-24T11:21:22.738Z,97255.94
2022-08-24T11:23:51.049Z,97259.38
2022-08-24T11:26:22.649Z,97264.66
2022-08-24T11:28:52.382Z,97251.09
2022-08-24T11:31:23.808Z,97263.56
2022-08-24T11:33:53.694Z,97257.22
2022-08-24T11:36:23.333Z,97256.22
2022-08-24T11:38:51.638Z,97262.38
2022-08-24T11:41:22.794Z,97260.53
2022-08-24T11:43:58.061Z,97250.75
2022-08-24T11:46:30.002Z,97258.72
2022-08-24T11:49:04.458Z,97255.91
2022-08-24T11:51:38.486Z,97255.91
2022-08-24T11:54:12.821Z,97245.13
2022-08-24T11:56:44.650Z,97241.50
2022-08-24T11:59:19.147Z,97244.97
2022-08-24T12:01:51.453Z,97232.34
2022-08-24T12:04:27.473Z,97233.22
2022-08-24T12:06:59.599Z,97234.06
2022-08-24T12:09:38.458Z,97228.56
2022-08-24T12:12:11.978Z,97232.13
2022-08-24T12:14:41.868Z,97230.31
2022-08-24T12:17:13.016Z,97232.88
2022-08-24T12:19:45.630Z,97237.28
2022-08-24T12:22:13.750Z,97221.03
2022-08-24T12:24:44.539Z,97224.56
2022-08-24T12:27:15.898Z,97217.34
2022-08-24T12:29:45.936Z,97220.78
2022-08-24T12:32:16.485Z,97221.78
2022-08-24T12:34:50.989Z,97222.53
2022-08-24T12:37:23.247Z,97221.53
2022-08-24T12:39:55.454Z,97224.22
2022-08-24T12:42:28.385Z,97217.88
2022-08-24T12:45:01.505Z,97223.28
2022-08-24T12:47:31.821Z,97222.28
2022-08-24T12:50:02.906Z,97230.38
2022-08-24T12:52:58.594Z,97225.84
2022-08-24T12:55:52.394Z,97227.66
2022-08-24T12:58:34.500Z,97217.75
2022-08-24T13:01:06.083Z,97228.41
2022-08-24T13:03:36.030Z,97217.66
2022-08-24T13:06:06.526Z,97223.03
2022-08-24T13:08:36.382Z,97215.81
2022-08-24T13:11:07.168Z,97215.81
2022-08-24T13:13:45.835Z,97216.69
2022-08-24T13:16:14.055Z,97207.75
2022-08-24T13:19:10.309Z,97216.69
2022-08-24T13:21:53.187Z,97219.38
2022-08-24T13:24:52.749Z,97214.00
2022-08-24T13:28:02.377Z,97221.09
2022-08-24T13:31:00.271Z,97220.22
2022-08-24T13:33:31.531Z,97217.44
2022-08-24T13:36:02.860Z,97224.66
2022-08-24T13:39:03.696Z,97223.66
2022-08-24T13:41:49.777Z,97225.41
2022-08-24T13:44:32.901Z,97220.00
2022-08-24T13:47:11.850Z,97217.19
2022-08-24T13:50:02.213Z,97223.44
2022-08-24T13:52:38.690Z,97213.53
2022-08-24T13:55:30.707Z,97215.25
2022-08-24T13:58:11.506Z,97215.13
2022-08-24T14:00:44.035Z,97215.03
2022-08-24T14:03:47.455Z,97214.03
2022-08-24T14:06:24.724Z,97212.22
2022-08-24T14:08:57.326Z,97213.09
2022-08-24T14:11:37.903Z,97213.91
2022-08-24T14:14:08.055Z,97202.19
2022-08-24T14:16:59.630Z,97204.75
2022-08-24T14:19:31.786Z,97209.28
2022-08-24T14:22:04.532Z,97203.06
2022-08-24T14:24:43.964Z,97199.38
2022-08-24T14:27:37.253Z,97207.44
2022-08-24T14:30:41.134Z,97202.06
2022-08-24T14:33:28.446Z,97201.19
2022-08-24T14:36:13.214Z,97201.19
2022-08-24T14:39:11.555Z,97208.44
2022-08-24T14:41:51.868Z,97203.88
2022-08-24T14:44:46.922Z,97197.66
2022-08-24T14:47:18.127Z,97198.50
2022-08-24T14:49:51.662Z,97204.75
2022-08-24T14:52:40.993Z,97203.88
2022-08-24T14:55:13.852Z,97203.78
2022-08-24T14:57:57.697Z,97190.34
2022-08-24T15:00:27.049Z,97201.94
2022-08-24T15:03:20.810Z,97200.13
2022-08-24T15:06:25.110Z,97204.53
2022-08-24T15:08:49.999Z,97192.03
2022-08-24T15:11:23.061Z,97199.25
2022-08-24T15:13:54.734Z,97189.34
2022-08-24T15:16:25.700Z,97200.97
2022-08-24T15:18:58.936Z,97194.72
2022-08-24T15:21:32.288Z,97195.59
2022-08-24T15:24:16.692Z,97199.25
2022-08-24T15:26:56.609Z,97201.94
2022-08-24T15:29:27.259Z,97204.53
2022-08-24T15:32:04.029Z,97199.25
2022-08-24T15:34:37.441Z,97202.94
2022-08-24T15:37:05.638Z,97206.50
2022-08-24T15:39:33.896Z,97209.06
2022-08-24T15:42:06.679Z,97210.88
2022-08-24T15:44:36.311Z,97205.50
2022-08-24T15:47:05.766Z,97217.25
2022-08-24T15:49:35.675Z,97225.22
2022-08-24T15:52:06.256Z,97255.81
2022-08-24T15:54:36.155Z,97267.47
2022-08-24T15:57:06.425Z,97261.31
2022-08-24T15:59:47.315Z,97266.59
2022-08-24T16:02:28.437Z,97269.28
2022-08-24T16:05:02.556Z,97271.97
2022-08-24T16:07:35.533Z,97269.41
2022-08-24T16:10:06.793Z,97276.53
2022-08-24T16:12:36.385Z,97282.75
2022-08-24T16:15:17.174Z,97296.22
2022-08-24T16:17:51.059Z,97304.09
2022-08-24T16:20:31.918Z,97309.59
2022-08-24T16:23:01.378Z,97310.44
2022-08-24T16:25:31.139Z,97313.03
2022-08-24T16:28:05.327Z,97310.34
2022-08-24T16:30:54.776Z,97319.25
2022-08-24T16:33:43.117Z,97315.63
2022-08-24T16:36:14.352Z,97314.75
2022-08-24T16:38:46.710Z,97320.13
2022-08-24T16:41:15.239Z,97316.47
2022-08-24T16:43:45.908Z,97322.72
2022-08-24T16:46:14.686Z,97331.66
2022-08-24T16:48:43.275Z,97333.47
2022-08-24T16:51:11.387Z,97334.34
2022-08-24T16:53:39.577Z,97320.88
2022-08-24T16:56:08.924Z,97333.41
2022-08-24T16:58:37.293Z,97322.63
2022-08-24T17:01:07.439Z,97329.72
2022-08-24T17:03:35.624Z,97335.09
2022-08-24T17:06:03.881Z,97350.28
2022-08-24T17:08:32.011Z,97349.31
2022-08-24T17:11:00.609Z,97350.28
2022-08-24T17:13:48.462Z,97359.09
2022-08-24T17:16:18.498Z,97356.53
2022-08-24T17:18:46.626Z,97370.88
2022-08-24T17:21:14.848Z,97376.25
2022-08-24T17:23:43.346Z,97372.59
2022-08-24T17:26:20.112Z,97374.44
2022-08-24T17:28:49.771Z,97362.78
2022-08-24T17:31:19.376Z,97376.25
2022-08-24T17:33:47.541Z,97382.53
2022-08-24T17:36:16.123Z,97377.22
2022-08-24T17:38:45.863Z,97377.13
2022-08-24T17:41:18.410Z,97375.28
2022-08-24T17:43:47.192Z,97377.13
2022-08-24T17:46:16.048Z,97382.63
2022-08-24T17:48:45.636Z,97381.78
2022-08-24T17:51:14.193Z,97379.19
2022-08-24T17:53:42.334Z,97384.59
2022-08-24T17:56:10.531Z,97392.66
2022-08-24T17:58:58.656Z,97387.28
2022-08-24T18:01:27.009Z,97390.94
2022-08-24T18:03:56.593Z,97397.19
2022-08-24T18:06:25.054Z,97400.00
2022-08-24T18:08:54.435Z,97398.16
2022-08-24T18:11:25.811Z,97398.25
2022-08-24T18:13:54.869Z,97400.00
2022-08-24T18:16:24.491Z,97403.53
2022-08-24T18:18:53.698Z,97401.81
2022-08-24T18:21:23.706Z,97411.53
2022-08-24T18:23:52.105Z,97415.06
2022-08-24T18:26:22.066Z,97407.09
2022-08-24T18:28:55.135Z,97413.34
2022-08-24T18:31:23.771Z,97418.75
2022-08-24T18:33:52.188Z,97413.34
2022-08-24T18:36:20.591Z,97416.06
2022-08-24T18:38:50.430Z,97423.13
2022-08-24T18:41:18.951Z,97428.53
2022-08-24T18:43:48.726Z,97418.63
2022-08-24T18:46:17.091Z,97415.81
2022-08-24T18:48:45.733Z,97416.69
2022-08-24T18:51:14.934Z,97422.06
2022-08-24T18:53:43.369Z,97424.75
2022-08-24T18:56:12.983Z,97424.75
2022-08-24T18:58:41.553Z,97429.16
2022-08-24T19:01:10.089Z,97429.09
2022-08-24T19:03:38.346Z,97425.50
2022-08-24T19:06:07.413Z,97421.94
2022-08-24T19:08:35.948Z,97419.25
2022-08-24T19:11:04.090Z,97417.56
2022-08-24T19:13:33.564Z,97417.56
2022-08-24T19:16:01.732Z,97416.69
2022-08-24T19:18:29.931Z,97423.91
2022-08-24T19:20:58.712Z,97426.72
2022-08-24T19:23:28.611Z,97424.00
2022-08-24T19:25:56.862Z,97432.09
2022-08-24T19:28:25.107Z,97426.81
2022-08-24T19:30:56.698Z,97425.09
2022-08-24T19:33:25.845Z,97425.09
2022-08-24T19:35:54.073Z,97417.13
2022-08-24T19:38:25.844Z,97424.34
2022-08-24T19:40:55.415Z,97420.06
2022-08-24T19:43:25.410Z,97419.94
2022-08-24T19:46:03.224Z,97420.88
2022-08-24T19:48:31.760Z,97422.63
2022-08-24T19:51:00.502Z,97428.13
2022-08-24T19:53:28.749Z,97428.00
2022-08-24T19:55:56.845Z,97434.34
2022-08-24T19:58:30.591Z,97428.88
2022-08-24T20:01:04.171Z,97433.41
2022-08-24T20:03:32.352Z,97431.56
2022-08-24T20:06:00.629Z,97430.72
2022-08-24T20:08:28.746Z,97428.97
2022-08-24T20:11:00.542Z,97442.34
2022-08-24T20:13:28.942Z,97442.34
2022-08-24T20:15:57.442Z,97447.75
2022-08-24T20:18:30.502Z,97446.75
2022-08-24T20:20:58.671Z,97451.19
2022-08-24T20:23:26.844Z,97454.72
2022-08-24T20:25:55.193Z,97452.91
2022-08-24T20:28:29.248Z,97460.09
2022-08-24T20:30:58.310Z,97457.41
2022-08-24T20:33:28.686Z,97462.81
2022-08-24T20:35:56.873Z,97464.53
2022-08-24T20:38:24.981Z,97452.91
2022-08-24T20:40:53.170Z,97455.72
2022-08-24T20:43:22.052Z,97453.97
2022-08-24T20:45:51.750Z,97452.16
2022-08-24T20:48:21.264Z,97446.75
2022-08-24T20:50:50.763Z,97451.19
2022-08-24T20:53:19.193Z,97450.31
2022-08-24T20:55:47.573Z,97454.84
2022-08-24T20:58:16.044Z,97460.09
2022-08-24T21:00:44.567Z,97458.41
2022-08-24T21:03:16.046Z,97454.84
2022-08-24T21:05:44.349Z,97461.09
2022-08-24T21:08:14.349Z,97457.53
2022-08-24T21:10:42.793Z,97460.22
2022-08-24T21:13:10.987Z,97456.66
2022-08-24T21:15:39.117Z,97455.81
2022-08-24T21:18:07.636Z,97465.63
2022-08-24T21:20:36.117Z,97465.72
2022-08-24T21:23:05.305Z,97460.34
2022-08-24T21:25:34.882Z,97460.47
2022-08-24T21:28:03.762Z,97464.97
2022-08-24T21:30:31.939Z,97452.47
2022-08-24T21:33:24.417Z,97454.31
2022-08-24T21:35:53.907Z,97456.16
2022-08-24T21:38:23.411Z,97449.00
2022-08-24T21:40:55.410Z,97454.41
2022-08-24T21:43:23.549Z,97451.81
2022-08-24T21:45:51.644Z,97445.56
2022-08-24T21:48:20.109Z,97445.56
2022-08-24T21:50:48.905Z,97436.72
2022-08-24T21:53:17.554Z,97437.59
2022-08-24T21:55:46.153Z,97434.91
2022-08-24T21:58:16.347Z,97430.50
2022-08-24T22:00:44.965Z,97423.38
2022-08-24T22:03:14.534Z,97430.59
2022-08-24T22:05:42.877Z,97426.94
2022-08-24T22:08:11.186Z,97422.50
2022-08-24T22:10:39.801Z,97411.75
2022-08-24T22:13:08.499Z,97410.03
2022-08-24T22:15:38.801Z,97402.91
2022-08-24T22:18:07.401Z,97408.28
2022-08-24T22:20:35.973Z,97401.09
2022-08-24T22:23:04.494Z,97402.06
2022-08-24T22:25:33.087Z,97407.47
2022-08-24T22:28:01.326Z,97396.69
2022-08-24T22:30:30.083Z,97394.00
2022-08-24T22:33:00.044Z,97394.94
2022-08-24T22:35:28.772Z,97393.13
2022-08-24T22:38:00.142Z,97398.50
2022-08-24T22:40:28.336Z,97394.00
2022-08-24T22:42:56.983Z,97392.25
2022-08-24T22:45:25.096Z,97389.56
2022-08-24T22:47:53.313Z,97386.88
2022-08-24T22:50:22.838Z,97387.84
2022-08-24T22:52:50.969Z,97394.06
2022-08-24T22:55:19.267Z,97384.28
2022-08-24T22:57:51.265Z,97386.13
2022-08-24T23:00:20.462Z,97384.28
2022-08-24T23:02:48.614Z,97379.03
2022-08-24T23:05:16.730Z,97373.63
2022-08-24T23:07:46.281Z,97380.84
2022-08-24T23:10:16.395Z,97374.59
2022-08-24T23:12:44.681Z,97375.47
2022-08-24T23:15:12.793Z,97371.03
2022-08-24T23:17:42.796Z,97376.41
2022-08-24T23:20:11.005Z,97371.03
2022-08-24T23:22:40.781Z,97367.59
2022-08-24T23:25:12.286Z,97368.44
2022-08-24T23:27:40.853Z,97369.31
2022-08-24T23:30:11.093Z,97370.28
2022-08-24T23:32:39.459Z,97366.75
2022-08-24T23:35:08.506Z,97374.81
2022-08-24T23:37:36.764Z,97364.13
2022-08-24T23:40:06.197Z,97359.63
2022-08-24T23:42:36.706Z,97362.31
2022-08-24T23:45:05.967Z,97357.91
2022-08-24T23:47:37.918Z,97366.00
2022-08-24T23:50:11.128Z,97357.91
2022-08-24T23:52:40.882Z,97361.56
2022-08-24T23:55:21.569Z,97353.59
2022-08-24T23:57:52.405Z,97359.84
